createdAt,value
2023-01-21T00:00:33.052Z,102117.16
2023-01-21T00:03:35.287Z,102121.53
2023-01-21T00:06:37.932Z,102122.34
2023-01-21T00:13:00.518Z,102130.34
2023-01-21T00:16:03.220Z,102128.78
2023-01-21T00:19:05.159Z,102127.19
2023-01-21T00:22:07.741Z,102126.66
2023-01-21T00:25:10.740Z,102131.84
2023-01-21T00:28:12.732Z,102121.72
2023-01-21T00:31:15.362Z,102129.59
2023-01-21T00:34:17.527Z,102129.63
2023-01-21T00:37:20.105Z,102133.19
2023-01-21T00:40:22.800Z,102132.66
2023-01-21T00:43:24.198Z,102140.84
2023-01-21T00:46:26.929Z,102148.09
2023-01-21T00:49:29.073Z,102146.84
2023-01-21T00:52:31.758Z,102146.41
2023-01-21T00:55:34.845Z,102152.09
2023-01-21T00:58:36.368Z,102157.03
2023-01-21T01:01:39.308Z,102153.38
2023-01-21T01:04:41.576Z,102164.97
2023-01-21T01:07:46.526Z,102166.75
2023-01-21T01:10:49.133Z,102161.59
2023-01-21T01:13:50.426Z,102185.34
2023-01-21T01:16:52.968Z,102178.25
2023-01-21T01:19:55.097Z,102181.41
2023-01-21T01:22:57.659Z,102178.25
2023-01-21T01:26:02.035Z,102188.03
2023-01-21T01:29:03.774Z,102195.53
2023-01-21T01:32:07.047Z,102200.09
2023-01-21T01:35:09.819Z,102196.59
2023-01-21T01:38:14.488Z,102213.78
2023-01-21T01:41:17.572Z,102210.50
2023-01-21T01:45:00.007Z,102218.91
2023-01-21T01:48:06.734Z,102210.00
2023-01-21T01:51:10.401Z,102205.69
2023-01-21T01:54:16.151Z,102209.03
2023-01-21T01:57:21.473Z,102213.78
2023-01-21T02:00:24.510Z,102209.31
2023-01-21T02:03:45.496Z,102224.75
2023-01-21T02:06:48.574Z,102217.97
2023-01-21T02:09:53.438Z,102215.50
2023-01-21T02:12:56.004Z,102218.03
2023-01-21T02:19:52.157Z,102220.16
2023-01-21T02:23:02.799Z,102223.69
2023-01-21T02:26:31.167Z,102214.13
2023-01-21T02:30:09.243Z,102226.38
2023-01-21T02:33:39.195Z,102221.66
2023-01-21T02:37:07.748Z,102229.94
2023-01-21T02:40:21.193Z,102220.44
2023-01-21T02:43:35.475Z,102215.88
2023-01-21T02:46:42.224Z,102233.63
2023-01-21T02:49:49.952Z,102235.25
2023-01-21T02:52:55.437Z,102241.66
2023-01-21T02:59:22.316Z,102245.13
2023-01-21T03:02:41.811Z,102245.53
2023-01-21T03:09:33.260Z,102231.22
2023-01-21T03:12:44.135Z,102222.94
2023-01-21T03:16:12.094Z,102226.34
2023-01-21T03:19:17.633Z,102224.59
2023-01-21T03:22:26.498Z,102222.44
2023-01-21T03:25:32.019Z,102234.41
2023-01-21T03:28:39.387Z,102246.91
2023-01-21T03:31:46.141Z,102250.53
2023-01-21T03:34:52.009Z,102250.66
2023-01-21T03:41:25.963Z,102252.81
2023-01-21T03:44:27.274Z,102245.69
2023-01-21T03:47:33.984Z,102264.25
2023-01-21T03:50:39.705Z,102258.91
2023-01-21T03:53:43.968Z,102260.16
2023-01-21T03:56:45.296Z,102259.53
2023-01-21T03:59:47.903Z,102248.09
2023-01-21T04:02:49.222Z,102248.63
2023-01-21T04:05:50.939Z,102246.09
2023-01-21T04:08:54.154Z,102253.44
2023-01-21T04:11:55.479Z,102243.63
2023-01-21T04:14:58.662Z,102238.00
2023-01-21T04:18:01.220Z,102231.47
2023-01-21T04:21:02.517Z,102233.41
2023-01-21T04:24:06.936Z,102239.00
2023-01-21T04:27:08.247Z,102240.97
2023-01-21T04:30:11.739Z,102242.41
2023-01-21T04:33:14.474Z,102243.44
2023-01-21T04:36:15.792Z,102243.59
2023-01-21T04:39:19.077Z,102240.88
2023-01-21T04:42:20.337Z,102252.53
2023-01-21T04:45:22.079Z,102262.19
2023-01-21T04:48:23.375Z,102254.72
2023-01-21T04:51:24.657Z,102261.31
2023-01-21T04:54:27.993Z,102257.47
2023-01-21T04:57:29.595Z,102264.81
2023-01-21T05:00:30.905Z,102263.50
2023-01-21T05:03:32.189Z,102259.31
2023-01-21T05:06:35.874Z,102261.81
2023-01-21T05:09:37.963Z,102261.13
2023-01-21T05:12:40.531Z,102264.41
2023-01-21T05:15:41.825Z,102283.31
2023-01-21T05:18:46.788Z,102275.31
2023-01-21T05:21:48.216Z,102274.13
2023-01-21T05:24:51.468Z,102277.53
2023-01-21T05:27:55.006Z,102283.56
2023-01-21T05:31:00.076Z,102285.41
2023-01-21T05:34:01.820Z,102292.09
2023-01-21T05:37:03.217Z,102287.28
2023-01-21T05:40:06.639Z,102282.53
2023-01-21T05:43:09.189Z,102281.16
2023-01-21T05:46:10.694Z,102295.88
2023-01-21T05:49:13.249Z,102299.13
2023-01-21T05:52:14.580Z,102298.81
2023-01-21T05:55:16.767Z,102311.81
2023-01-21T06:01:38.719Z,102301.53
2023-01-21T06:04:41.229Z,102307.41
2023-01-21T06:07:42.576Z,102311.19
2023-01-21T06:10:45.891Z,102304.84
2023-01-21T06:13:48.472Z,102308.25
2023-01-21T06:16:49.802Z,102316.97
2023-01-21T06:19:52.334Z,102317.06
2023-01-21T06:22:53.616Z,102316.81
2023-01-21T06:26:00.693Z,102315.50
2023-01-21T06:29:02.523Z,102311.09
2023-01-21T06:32:04.460Z,102317.91
2023-01-21T06:35:07.503Z,102323.38
2023-01-21T06:38:08.822Z,102332.88
2023-01-21T06:41:12.015Z,102329.84
2023-01-21T06:44:14.564Z,102336.72
2023-01-21T06:47:15.857Z,102345.69
2023-01-21T06:50:19.355Z,102342.03
2023-01-21T06:53:20.751Z,102343.03
2023-01-21T06:56:23.940Z,102355.19
2023-01-21T06:59:25.368Z,102356.50
2023-01-21T07:02:26.842Z,102358.66
2023-01-21T07:05:28.174Z,102363.13
2023-01-21T07:08:29.491Z,102358.13
2023-01-21T07:11:32.994Z,102363.81
2023-01-21T07:14:35.611Z,102360.97
2023-01-21T07:17:37.804Z,102357.72
2023-01-21T07:20:41.018Z,102354.25
2023-01-21T07:23:42.560Z,102366.22
2023-01-21T07:26:45.772Z,102369.47
2023-01-21T07:29:48.764Z,102361.50
2023-01-21T07:32:51.340Z,102369.00
2023-01-21T07:35:53.918Z,102369.47
2023-01-21T07:38:55.576Z,102371.03
2023-01-21T07:41:58.815Z,102376.88
2023-01-21T07:45:02.120Z,102371.56
2023-01-21T07:48:05.179Z,102373.56
2023-01-21T07:51:07.878Z,102381.97
2023-01-21T07:54:10.120Z,102387.50
2023-01-21T07:57:14.227Z,102380.97
2023-01-21T08:00:17.212Z,102374.63
2023-01-21T08:10:04.776Z,102389.09
2023-01-21T08:13:07.184Z,102390.09
2023-01-21T08:16:10.881Z,102391.06
2023-01-21T08:19:13.954Z,102392.63
2023-01-21T08:22:16.732Z,102389.44
2023-01-21T08:25:19.535Z,102387.84
2023-01-21T08:28:21.668Z,102384.66
2023-01-21T08:34:43.953Z,102383.75
2023-01-21T08:37:45.326Z,102388.38
2023-01-21T08:40:46.587Z,102389.53
2023-01-21T08:43:48.564Z,102385.56
2023-01-21T08:46:51.155Z,102382.09
2023-01-21T08:49:52.471Z,102392.63
2023-01-21T08:52:55.271Z,102375.03
2023-01-21T08:55:58.580Z,102372.16
2023-01-21T08:59:02.141Z,102387.81
2023-01-21T09:02:04.756Z,102381.09
2023-01-21T09:05:07.145Z,102384.09
2023-01-21T09:08:10.077Z,102384.94
2023-01-21T09:11:11.559Z,102380.06
2023-01-21T09:14:14.782Z,102372.75
2023-01-21T09:17:17.332Z,102384.66
2023-01-21T09:20:18.642Z,102389.78
2023-01-21T09:23:25.862Z,102393.28
2023-01-21T09:26:27.794Z,102398.59
2023-01-21T09:29:30.984Z,102394.53
2023-01-21T09:32:32.891Z,102400.31
2023-01-21T09:35:35.452Z,102410.78
2023-01-21T09:38:38.106Z,102399.63
2023-01-21T09:41:45.204Z,102392.25
2023-01-21T09:44:51.032Z,102403.59
2023-01-21T09:47:55.581Z,102402.75
2023-01-21T09:50:59.989Z,102393.31
2023-01-21T09:54:04.978Z,102392.19
2023-01-21T09:57:22.380Z,102395.69
2023-01-21T10:00:34.846Z,102402.81
2023-01-21T10:03:44.877Z,102401.97
2023-01-21T10:06:51.044Z,102401.34
2023-01-21T10:10:05.049Z,102403.88
2023-01-21T10:13:24.318Z,102394.22
2023-01-21T10:16:32.916Z,102388.69
2023-01-21T10:19:38.850Z,102387.38
2023-01-21T10:22:46.683Z,102384.31
2023-01-21T10:25:50.674Z,102385.69
2023-01-21T10:28:54.545Z,102381.31
2023-01-21T10:32:03.538Z,102367.59
2023-01-21T10:35:16.749Z,102367.59
2023-01-21T10:38:30.981Z,102371.47
2023-01-21T10:41:52.328Z,102363.53
2023-01-21T10:45:00.560Z,102366.91
2023-01-21T10:48:12.115Z,102359.97
2023-01-21T10:51:18.750Z,102360.84
2023-01-21T10:54:25.304Z,102356.25
2023-01-21T10:57:40.953Z,102359.81
2023-01-21T11:00:48.386Z,102365.06
2023-01-21T11:03:53.867Z,102354.06
2023-01-21T11:06:59.953Z,102356.28
2023-01-21T11:10:03.026Z,102348.16
2023-01-21T11:13:12.751Z,102335.94
2023-01-21T11:16:30.025Z,102335.06
2023-01-21T11:19:33.206Z,102335.06
2023-01-21T11:22:42.846Z,102337.25
2023-01-21T11:25:45.441Z,102325.03
2023-01-21T11:28:46.703Z,102317.59
2023-01-21T11:31:51.884Z,102314.38
2023-01-21T11:35:03.372Z,102310.81
2023-01-21T11:38:05.376Z,102307.38
2023-01-21T11:41:17.676Z,102302.78
2023-01-21T11:44:21.882Z,102299.38
2023-01-21T11:47:29.049Z,102279.97
2023-01-21T11:50:35.223Z,102279.59
2023-01-21T11:53:37.546Z,102267.44
2023-01-21T11:56:40.048Z,102270.31
2023-01-21T11:59:46.689Z,102276.78
2023-01-21T12:02:51.622Z,102266.41
2023-01-21T12:05:55.157Z,102266.75
2023-01-21T12:09:01.677Z,102268.53
2023-01-21T12:12:27.887Z,102264.78
2023-01-21T12:15:44.469Z,102265.16
2023-01-21T12:19:23.467Z,102258.72
2023-01-21T12:22:57.392Z,102255.97
2023-01-21T12:26:00.810Z,102255.25
2023-01-21T12:29:19.584Z,102250.94
2023-01-21T12:32:26.231Z,102249.25
2023-01-21T12:35:33.253Z,102248.69
2023-01-21T12:38:40.773Z,102246.66
2023-01-21T12:41:46.904Z,102253.97
2023-01-21T12:44:53.037Z,102242.75
2023-01-21T12:47:58.717Z,102248.00
2023-01-21T12:51:05.670Z,102251.41
2023-01-21T12:54:17.579Z,102251.41
2023-01-21T12:57:25.363Z,102234.28
2023-01-21T13:00:34.121Z,102246.53
2023-01-21T13:03:47.727Z,102258.06
2023-01-21T13:06:57.638Z,102251.56
2023-01-21T13:10:11.171Z,102255.81
2023-01-21T13:13:17.764Z,102252.41
2023-01-21T13:16:22.571Z,102246.31
2023-01-21T13:19:25.103Z,102244.13
2023-01-21T13:22:36.248Z,102250.91
2023-01-21T13:25:44.343Z,102244.94
2023-01-21T13:28:53.149Z,102255.88
2023-01-21T13:32:13.124Z,102241.72
2023-01-21T13:35:28.711Z,102243.09
2023-01-21T13:38:37.292Z,102245.47
2023-01-21T13:42:01.174Z,102242.22
2023-01-21T13:45:25.480Z,102237.09
2023-01-21T13:48:44.858Z,102234.72
2023-01-21T13:51:56.340Z,102223.75
2023-01-21T13:55:15.138Z,102217.38
2023-01-21T13:58:25.063Z,102200.44
2023-01-21T14:01:32.397Z,102202.41
2023-01-21T14:04:40.678Z,102192.84
2023-01-21T14:07:46.880Z,102189.97
2023-01-21T14:10:53.640Z,102180.38
2023-01-21T14:14:24.021Z,102194.91
2023-01-21T14:17:53.767Z,102203.34
2023-01-21T14:28:21.537Z,102182.16
2023-01-21T14:31:31.362Z,102166.53
2023-01-21T14:34:40.263Z,102174.69
2023-01-21T14:37:44.954Z,102178.16
2023-01-21T14:40:50.128Z,102187.81
2023-01-21T14:43:52.398Z,102157.75
2023-01-21T14:47:17.699Z,102169.25
2023-01-21T14:50:45.674Z,102163.56
2023-01-21T14:53:49.303Z,102184.66
2023-01-21T14:56:52.835Z,102172.47
2023-01-21T15:00:10.201Z,102181.47
2023-01-21T15:03:16.869Z,102183.03
2023-01-21T15:06:22.201Z,102178.84
2023-01-21T15:12:53.684Z,102188.97
2023-01-21T15:16:12.311Z,102198.34
2023-01-21T15:19:27.305Z,102190.84
2023-01-21T15:22:40.242Z,102174.03
2023-01-21T15:26:03.319Z,102171.72
2023-01-21T15:29:33.092Z,102161.88
2023-01-21T15:32:37.858Z,102151.88
2023-01-21T15:35:41.979Z,102148.69
2023-01-21T15:38:43.376Z,102153.78
2023-01-21T15:42:03.973Z,102138.13
2023-01-21T15:45:19.808Z,102134.31
2023-01-21T15:48:46.404Z,102142.28
2023-01-21T15:52:01.210Z,102126.72
2023-01-21T15:55:24.848Z,102131.94
2023-01-21T15:58:36.319Z,102127.59
2023-01-21T16:01:38.700Z,102130.75
2023-01-21T16:08:22.765Z,102135.66
2023-01-21T16:11:48.710Z,102123.72
2023-01-21T16:15:01.616Z,102124.03
2023-01-21T16:18:13.388Z,102123.19
2023-01-21T16:21:20.803Z,102122.66
2023-01-21T16:24:27.004Z,102132.03
2023-01-21T16:27:30.413Z,102142.53
2023-01-21T16:30:31.877Z,102125.97
2023-01-21T16:33:34.456Z,102141.94
2023-01-21T16:36:37.977Z,102142.63
2023-01-21T16:39:41.763Z,102140.75
2023-01-21T16:42:44.002Z,102141.97
2023-01-21T16:45:51.855Z,102146.34
2023-01-21T16:48:56.536Z,102146.19
2023-01-21T16:52:01.125Z,102151.94
2023-01-21T16:55:18.593Z,102154.34
2023-01-21T16:58:25.518Z,102146.38
2023-01-21T17:01:27.895Z,102152.13
2023-01-21T17:04:30.774Z,102140.28
2023-01-21T17:07:37.654Z,102128.91
2023-01-21T17:10:52.340Z,102142.16
2023-01-21T17:13:53.912Z,102154.34
2023-01-21T17:16:58.319Z,102143.16
2023-01-21T17:20:01.446Z,102148.59
2023-01-21T17:23:06.611Z,102141.13
2023-01-21T17:26:18.151Z,102160.94
2023-01-21T17:29:23.317Z,102141.31
2023-01-21T17:32:26.245Z,102155.19
2023-01-21T17:35:29.651Z,102142.63
2023-01-21T17:38:30.969Z,102148.38
2023-01-21T17:41:38.122Z,102152.97
2023-01-21T17:44:39.497Z,102155.69
2023-01-21T17:48:03.212Z,102153.47
2023-01-21T17:54:29.042Z,102163.63
2023-01-21T17:57:33.877Z,102162.09
2023-01-21T18:00:40.226Z,102162.09
2023-01-21T18:03:42.114Z,102165.34
2023-01-21T18:06:45.649Z,102168.72
2023-01-21T18:09:46.965Z,102170.59
2023-01-21T18:16:09.143Z,102174.63
2023-01-21T18:19:27.266Z,102169.56
2023-01-21T18:22:32.286Z,102181.25
2023-01-21T18:25:33.635Z,102183.59
2023-01-21T18:28:36.885Z,102183.78
2023-01-21T18:31:40.784Z,102190.03
2023-01-21T18:34:42.286Z,102184.63
2023-01-21T18:37:45.275Z,102179.38
2023-01-21T18:40:46.592Z,102176.50
2023-01-21T18:43:49.805Z,102176.84
2023-01-21T18:46:51.201Z,102164.84
2023-01-21T18:49:53.892Z,102177.84
2023-01-21T18:52:55.468Z,102180.56
2023-01-21T18:55:58.285Z,102179.88
2023-01-21T18:59:01.824Z,102173.63
2023-01-21T19:02:03.242Z,102188.84
2023-01-21T19:05:06.359Z,102180.56
2023-01-21T19:08:13.067Z,102189.38
2023-01-21T19:11:14.506Z,102183.78
2023-01-21T19:14:18.190Z,102190.91
2023-01-21T19:17:25.009Z,102194.97
2023-01-21T19:20:28.399Z,102190.91
2023-01-21T19:23:29.703Z,102186.47
2023-01-21T19:26:32.343Z,102192.41
2023-01-21T19:29:38.290Z,102195.13
2023-01-21T19:32:39.650Z,102202.06
2023-01-21T19:35:45.098Z,102194.94
2023-01-21T19:38:52.728Z,102198.69
2023-01-21T19:42:07.545Z,102210.00
2023-01-21T19:45:11.581Z,102204.41
2023-01-21T19:48:17.302Z,102202.06
2023-01-21T19:51:18.734Z,102205.63
2023-01-21T19:54:21.442Z,102210.19
2023-01-21T19:57:24.035Z,102206.59
2023-01-21T20:00:27.603Z,102216.78
2023-01-21T20:06:51.346Z,102228.16
2023-01-21T20:09:52.633Z,102217.66
2023-01-21T20:12:54.162Z,102221.22
2023-01-21T20:16:01.828Z,102225.28
2023-01-21T20:19:03.427Z,102225.94
2023-01-21T20:22:04.757Z,102215.25
2023-01-21T20:25:06.952Z,102230.50
2023-01-21T20:28:16.432Z,102237.63
2023-01-21T20:31:18.938Z,102233.41
2023-01-21T20:34:21.619Z,102227.13
2023-01-21T20:37:23.346Z,102240.69
2023-01-21T20:40:27.910Z,102240.34
2023-01-21T20:43:29.345Z,102237.63
2023-01-21T20:46:32.719Z,102246.78
2023-01-21T20:49:34.201Z,102255.94
2023-01-21T20:52:36.726Z,102249.19
2023-01-21T20:55:39.162Z,102254.91
2023-01-21T20:58:45.335Z,102258.16
2023-01-21T21:01:47.501Z,102262.00
2023-01-21T21:08:13.786Z,102269.66
2023-01-21T21:14:38.047Z,102273.72
2023-01-21T21:17:41.223Z,102279.31
2023-01-21T21:20:43.827Z,102276.94
2023-01-21T21:23:45.834Z,102274.91
2023-01-21T21:26:48.376Z,102276.59
2023-01-21T21:29:55.401Z,102276.09
2023-01-21T21:33:00.195Z,102272.53
2023-01-21T21:36:02.724Z,102276.28
2023-01-21T21:39:05.283Z,102282.69
2023-01-21T21:42:26.946Z,102282.34
2023-01-21T21:45:29.485Z,102286.22
2023-01-21T21:48:37.490Z,102296.59
2023-01-21T21:51:40.211Z,102292.00
2023-01-21T21:54:42.081Z,102296.59
2023-01-21T21:57:44.620Z,102297.47
2023-01-21T22:00:47.531Z,102300.16
2023-01-21T22:03:49.609Z,102303.19
2023-01-21T22:06:52.199Z,102298.78
2023-01-21T22:09:54.736Z,102301.81
2023-01-21T22:12:56.021Z,102304.88
2023-01-21T22:16:00.691Z,102306.38
2023-01-21T22:19:02.760Z,102315.72
2023-01-21T22:22:05.374Z,102317.56
2023-01-21T22:25:09.961Z,102317.94
2023-01-21T22:28:12.495Z,102317.91
2023-01-21T22:31:15.690Z,102311.63
2023-01-21T22:34:18.984Z,102323.31
2023-01-21T22:37:21.568Z,102313.50
2023-01-21T22:40:22.894Z,102315.38
2023-01-21T22:43:25.521Z,102324.03
2023-01-21T22:46:30.440Z,102315.16
2023-01-21T22:49:32.425Z,102323.06
2023-01-21T22:52:34.983Z,102323.28
2023-01-21T22:55:38.642Z,102319.22
2023-01-21T22:58:40.032Z,102327.19
2023-01-21T23:01:43.038Z,102322.81
2023-01-21T23:04:45.452Z,102326.19
2023-01-21T23:07:48.021Z,102332.09
2023-01-21T23:10:49.289Z,102338.66
2023-01-21T23:13:53.642Z,102334.13
2023-01-21T23:16:56.239Z,102335.66
2023-01-21T23:19:58.177Z,102335.09
2023-01-21T23:23:00.738Z,102339.06
2023-01-21T23:26:03.559Z,102336.97
2023-01-21T23:29:04.890Z,102337.34
2023-01-21T23:32:07.541Z,102335.09
2023-01-21T23:35:09.683Z,102327.03
2023-01-21T23:38:12.284Z,102334.31
2023-01-21T23:41:16.064Z,102333.94
2023-01-21T23:44:18.601Z,102329.94
2023-01-21T23:47:20.050Z,102330.72
2023-01-21T23:50:23.384Z,102336.19
2023-01-21T23:53:25.919Z,102337.69
2023-01-21T23:56:27.227Z,102335.84
2023-01-21T23:59:29.783Z,102332.56
